sensor_id;sensor_type;location;lat;lon;timestamp;pressure;altitude;pressure_sealevel;temperature
15062;BMP180;7630;50.306;8.566;2023-03-14T00:00:39;95795.00;;;11.00
15062;BMP180;7630;50.306;8.566;2023-03-14T00:04:40;95801.00;;;11.20
15062;BMP180;7630;50.306;8.566;2023-03-14T00:08:42;95807.00;;;10.70
15062;BMP180;7630;50.306;8.566;2023-03-14T00:12:44;95812.00;;;10.90
15062;BMP180;7630;50.306;8.566;2023-03-14T00:16:46;95844.00;;;10.80
15062;BMP180;7630;50.306;8.566;2023-03-14T00:20:47;95843.00;;;10.60
15062;BMP180;7630;50.306;8.566;2023-03-14T00:24:48;95838.00;;;10.40
15062;BMP180;7630;50.306;8.566;2023-03-14T00:28:51;95845.00;;;10.70
15062;BMP180;7630;50.306;8.566;2023-03-14T00:32:53;95844.00;;;10.70
15062;BMP180;7630;50.306;8.566;2023-03-14T00:36:55;95853.00;;;11.20
15062;BMP180;7630;50.306;8.566;2023-03-14T00:40:56;95843.00;;;10.80
15062;BMP180;7630;50.306;8.566;2023-03-14T00:44:57;95830.00;;;10.60
15062;BMP180;7630;50.306;8.566;2023-03-14T00:48:58;95815.00;;;10.80
15062;BMP180;7630;50.306;8.566;2023-03-14T00:52:59;95799.00;;;10.90
15062;BMP180;7630;50.306;8.566;2023-03-14T00:57:00;95778.00;;;10.90
15062;BMP180;7630;50.306;8.566;2023-03-14T01:01:11;95761.00;;;10.50
15062;BMP180;7630;50.306;8.566;2023-03-14T01:05:08;95759.00;;;10.30
15062;BMP180;7630;50.306;8.566;2023-03-14T01:09:11;95773.00;;;10.60
15062;BMP180;7630;50.306;8.566;2023-03-14T01:13:13;95775.00;;;10.20
15062;BMP180;7630;50.306;8.566;2023-03-14T01:21:32;95804.00;;;10.90
15062;BMP180;7630;50.306;8.566;2023-03-14T01:25:33;95646.00;;;10.00
15062;BMP180;7630;50.306;8.566;2023-03-14T01:29:34;95775.00;;;9.90
15062;BMP180;7630;50.306;8.566;2023-03-14T01:33:36;95768.00;;;10.20
15062;BMP180;7630;50.306;8.566;2023-03-14T01:37:37;95770.00;;;10.20
15062;BMP180;7630;50.306;8.566;2023-03-14T01:41:39;95770.00;;;10.00
15062;BMP180;7630;50.306;8.566;2023-03-14T01:50:11;95736.00;;;10.30
15062;BMP180;7630;50.306;8.566;2023-03-14T01:58:25;95731.00;;;10.60
15062;BMP180;7630;50.306;8.566;2023-03-14T02:02:29;95735.00;;;10.40
15062;BMP180;7630;50.306;8.566;2023-03-14T02:06:52;95708.00;;;10.10
15062;BMP180;7630;50.306;8.566;2023-03-14T02:10:53;95718.00;;;10.50
15062;BMP180;7630;50.306;8.566;2023-03-14T02:14:54;95708.00;;;10.20
15062;BMP180;7630;50.306;8.566;2023-03-14T02:18:55;95715.00;;;10.30
15062;BMP180;7630;50.306;8.566;2023-03-14T02:22:56;95718.00;;;10.30
15062;BMP180;7630;50.306;8.566;2023-03-14T02:31:15;95733.00;;;10.60
15062;BMP180;7630;50.306;8.566;2023-03-14T02:35:20;95702.00;;;10.80
15062;BMP180;7630;50.306;8.566;2023-03-14T02:39:24;95698.00;;;10.10
15062;BMP180;7630;50.306;8.566;2023-03-14T02:43:26;95693.00;;;9.90
15062;BMP180;7630;50.306;8.566;2023-03-14T02:47:29;95675.00;;;9.60
15062;BMP180;7630;50.306;8.566;2023-03-14T02:51:32;95700.00;;;10.10
15062;BMP180;7630;50.306;8.566;2023-03-14T02:55:33;95682.00;;;10.00
15062;BMP180;7630;50.306;8.566;2023-03-14T02:59:34;95685.00;;;9.70
15062;BMP180;7630;50.306;8.566;2023-03-14T03:03:35;95689.00;;;9.80
15062;BMP180;7630;50.306;8.566;2023-03-14T03:07:36;95696.00;;;9.50
15062;BMP180;7630;50.306;8.566;2023-03-14T03:11:37;95686.00;;;9.80
15062;BMP180;7630;50.306;8.566;2023-03-14T03:15:38;95668.00;;;10.00
15062;BMP180;7630;50.306;8.566;2023-03-14T03:19:40;95677.00;;;9.80
15062;BMP180;7630;50.306;8.566;2023-03-14T03:23:41;95695.00;;;9.90
15062;BMP180;7630;50.306;8.566;2023-03-14T03:27:42;95687.00;;;10.20
15062;BMP180;7630;50.306;8.566;2023-03-14T03:31:44;95673.00;;;10.00
15062;BMP180;7630;50.306;8.566;2023-03-14T03:35:49;95679.00;;;10.00
15062;BMP180;7630;50.306;8.566;2023-03-14T03:39:51;95642.00;;;10.00
15062;BMP180;7630;50.306;8.566;2023-03-14T03:43:52;95659.00;;;10.00
15062;BMP180;7630;50.306;8.566;2023-03-14T03:47:55;95669.00;;;10.20
15062;BMP180;7630;50.306;8.566;2023-03-14T03:51:56;95668.00;;;9.70
15062;BMP180;7630;50.306;8.566;2023-03-14T03:55:57;95673.00;;;10.30
15062;BMP180;7630;50.306;8.566;2023-03-14T03:59:58;95648.00;;;10.10
15062;BMP180;7630;50.306;8.566;2023-03-14T04:03:59;95632.00;;;10.60
15062;BMP180;7630;50.306;8.566;2023-03-14T04:08:01;95627.00;;;9.90
15062;BMP180;7630;50.306;8.566;2023-03-14T04:12:02;95620.00;;;10.20
15062;BMP180;7630;50.306;8.566;2023-03-14T04:16:08;95609.00;;;10.20
15062;BMP180;7630;50.306;8.566;2023-03-14T04:20:07;95601.00;;;10.10
15062;BMP180;7630;50.306;8.566;2023-03-14T04:24:11;95621.00;;;10.40
15062;BMP180;7630;50.306;8.566;2023-03-14T04:28:12;95620.00;;;10.00
15062;BMP180;7630;50.306;8.566;2023-03-14T04:32:13;95615.00;;;10.20
15062;BMP180;7630;50.306;8.566;2023-03-14T04:36:14;95623.00;;;10.00
15062;BMP180;7630;50.306;8.566;2023-03-14T04:40:15;95607.00;;;10.20
15062;BMP180;7630;50.306;8.566;2023-03-14T04:44:18;95589.00;;;9.80
15062;BMP180;7630;50.306;8.566;2023-03-14T04:48:20;95613.00;;;10.40
15062;BMP180;7630;50.306;8.566;2023-03-14T04:52:21;95599.00;;;10.50
15062;BMP180;7630;50.306;8.566;2023-03-14T04:56:23;95579.00;;;10.00
15062;BMP180;7630;50.306;8.566;2023-03-14T05:00:24;95599.00;;;10.70
15062;BMP180;7630;50.306;8.566;2023-03-14T05:04:26;95600.00;;;10.40
15062;BMP180;7630;50.306;8.566;2023-03-14T05:08:27;95591.00;;;10.10
15062;BMP180;7630;50.306;8.566;2023-03-14T05:12:28;95601.00;;;10.90
15062;BMP180;7630;50.306;8.566;2023-03-14T05:16:29;95606.00;;;10.40
15062;BMP180;7630;50.306;8.566;2023-03-14T05:20:30;95610.00;;;10.30
15062;BMP180;7630;50.306;8.566;2023-03-14T05:24:32;95649.00;;;10.40
15062;BMP180;7630;50.306;8.566;2023-03-14T05:28:33;95598.00;;;10.80
15062;BMP180;7630;50.306;8.566;2023-03-14T05:32:34;95582.00;;;10.70
15062;BMP180;7630;50.306;8.566;2023-03-14T05:36:36;95592.00;;;10.20
15062;BMP180;7630;50.306;8.566;2023-03-14T05:40:37;95576.00;;;10.30
15062;BMP180;7630;50.306;8.566;2023-03-14T05:44:38;95571.00;;;10.40
15062;BMP180;7630;50.306;8.566;2023-03-14T05:48:39;95569.00;;;9.70
15062;BMP180;7630;50.306;8.566;2023-03-14T05:52:40;95111.00;;;9.70
15062;BMP180;7630;50.306;8.566;2023-03-14T05:56:41;95538.00;;;9.80
15062;BMP180;7630;50.306;8.566;2023-03-14T06:00:42;95535.00;;;9.80
15062;BMP180;7630;50.306;8.566;2023-03-14T06:04:44;95534.00;;;9.70
15062;BMP180;7630;50.306;8.566;2023-03-14T06:08:45;95521.00;;;9.60
15062;BMP180;7630;50.306;8.566;2023-03-14T06:12:46;95534.00;;;10.20
15062;BMP180;7630;50.306;8.566;2023-03-14T06:16:47;95540.00;;;9.80
15062;BMP180;7630;50.306;8.566;2023-03-14T06:20:56;95544.00;;;10.00
15062;BMP180;7630;50.306;8.566;2023-03-14T06:24:55;95428.00;;;10.20
15062;BMP180;7630;50.306;8.566;2023-03-14T06:28:56;95537.00;;;9.30
15062;BMP180;7630;50.306;8.566;2023-03-14T06:32:57;95540.00;;;10.00
15062;BMP180;7630;50.306;8.566;2023-03-14T06:36:58;95538.00;;;9.90
15062;BMP180;7630;50.306;8.566;2023-03-14T06:41:04;95528.00;;;9.90
15062;BMP180;7630;50.306;8.566;2023-03-14T06:45:07;95514.00;;;9.40
15062;BMP180;7630;50.306;8.566;2023-03-14T06:49:08;95528.00;;;9.70
15062;BMP180;7630;50.306;8.566;2023-03-14T06:53:09;95528.00;;;9.70
15062;BMP180;7630;50.306;8.566;2023-03-14T06:57:10;95538.00;;;9.90
15062;BMP180;7630;50.306;8.566;2023-03-14T07:01:24;95539.00;;;10.30
15062;BMP180;7630;50.306;8.566;2023-03-14T07:05:25;95549.00;;;9.90
15062;BMP180;7630;50.306;8.566;2023-03-14T07:09:27;95543.00;;;9.80
15062;BMP180;7630;50.306;8.566;2023-03-14T07:13:28;95552.00;;;10.20
15062;BMP180;7630;50.306;8.566;2023-03-14T07:17:29;95552.00;;;10.20
15062;BMP180;7630;50.306;8.566;2023-03-14T07:21:30;95541.00;;;10.20
15062;BMP180;7630;50.306;8.566;2023-03-14T07:25:33;95546.00;;;9.80
15062;BMP180;7630;50.306;8.566;2023-03-14T07:29:34;95560.00;;;10.10
15062;BMP180;7630;50.306;8.566;2023-03-14T07:33:36;95554.00;;;10.20
15062;BMP180;7630;50.306;8.566;2023-03-14T07:37:37;95550.00;;;10.40
15062;BMP180;7630;50.306;8.566;2023-03-14T07:41:38;95533.00;;;10.10
15062;BMP180;7630;50.306;8.566;2023-03-14T07:45:39;95539.00;;;10.30
15062;BMP180;7630;50.306;8.566;2023-03-14T07:49:42;95558.00;;;10.30
15062;BMP180;7630;50.306;8.566;2023-03-14T07:53:43;95555.00;;;10.10
15062;BMP180;7630;50.306;8.566;2023-03-14T07:57:45;95555.00;;;10.50
15062;BMP180;7630;50.306;8.566;2023-03-14T08:01:46;95554.00;;;10.60
15062;BMP180;7630;50.306;8.566;2023-03-14T08:05:48;95552.00;;;10.40
15062;BMP180;7630;50.306;8.566;2023-03-14T08:09:50;95547.00;;;10.40
15062;BMP180;7630;50.306;8.566;2023-03-14T08:13:51;95561.00;;;10.60
15062;BMP180;7630;50.306;8.566;2023-03-14T08:17:53;95553.00;;;10.70
15062;BMP180;7630;50.306;8.566;2023-03-14T08:21:54;95546.00;;;11.10
15062;BMP180;7630;50.306;8.566;2023-03-14T08:25:55;95548.00;;;11.30
15062;BMP180;7630;50.306;8.566;2023-03-14T08:29:57;95558.00;;;11.20
15062;BMP180;7630;50.306;8.566;2023-03-14T08:33:59;95545.00;;;11.20
15062;BMP180;7630;50.306;8.566;2023-03-14T08:38:00;95546.00;;;10.60
15062;BMP180;7630;50.306;8.566;2023-03-14T08:42:02;95553.00;;;10.90
15062;BMP180;7630;50.306;8.566;2023-03-14T08:46:05;95543.00;;;10.50
15062;BMP180;7630;50.306;8.566;2023-03-14T08:50:07;95551.00;;;11.40
15062;BMP180;7630;50.306;8.566;2023-03-14T08:54:10;95529.00;;;12.00
15062;BMP180;7630;50.306;8.566;2023-03-14T08:58:12;95539.00;;;12.20
15062;BMP180;7630;50.306;8.566;2023-03-14T09:02:13;95555.00;;;11.70
15062;BMP180;7630;50.306;8.566;2023-03-14T09:06:15;95557.00;;;11.80
15062;BMP180;7630;50.306;8.566;2023-03-14T09:10:19;95562.00;;;12.00
15062;BMP180;7630;50.306;8.566;2023-03-14T09:14:20;95574.00;;;12.10
15062;BMP180;7630;50.306;8.566;2023-03-14T09:18:23;95580.00;;;11.20
15062;BMP180;7630;50.306;8.566;2023-03-14T09:22:24;95585.00;;;12.00
15062;BMP180;7630;50.306;8.566;2023-03-14T09:26:25;95580.00;;;11.50
15062;BMP180;7630;50.306;8.566;2023-03-14T09:30:26;95588.00;;;11.60
15062;BMP180;7630;50.306;8.566;2023-03-14T09:34:28;95586.00;;;11.80
15062;BMP180;7630;50.306;8.566;2023-03-14T09:38:30;95591.00;;;11.20
15062;BMP180;7630;50.306;8.566;2023-03-14T09:42:32;95594.00;;;11.50
15062;BMP180;7630;50.306;8.566;2023-03-14T09:46:35;95590.00;;;11.40
15062;BMP180;7630;50.306;8.566;2023-03-14T09:50:43;95595.00;;;11.40
15062;BMP180;7630;50.306;8.566;2023-03-14T09:54:49;95591.00;;;11.60
15062;BMP180;7630;50.306;8.566;2023-03-14T09:58:53;95576.00;;;11.70
15062;BMP180;7630;50.306;8.566;2023-03-14T10:03:00;95595.00;;;11.60
15062;BMP180;7630;50.306;8.566;2023-03-14T10:07:03;95588.00;;;11.50
15062;BMP180;7630;50.306;8.566;2023-03-14T10:11:05;95582.00;;;11.50
15062;BMP180;7630;50.306;8.566;2023-03-14T10:15:10;95586.00;;;11.60
15062;BMP180;7630;50.306;8.566;2023-03-14T10:19:14;95584.00;;;11.80
15062;BMP180;7630;50.306;8.566;2023-03-14T10:23:19;95595.00;;;11.40
15062;BMP180;7630;50.306;8.566;2023-03-14T10:27:30;95601.00;;;11.50
15062;BMP180;7630;50.306;8.566;2023-03-14T10:31:47;95595.00;;;11.60
15062;BMP180;7630;50.306;8.566;2023-03-14T10:35:52;95587.00;;;11.80
15062;BMP180;7630;50.306;8.566;2023-03-14T10:40:02;95596.00;;;12.20
15062;BMP180;7630;50.306;8.566;2023-03-14T10:44:07;95592.00;;;11.90
15062;BMP180;7630;50.306;8.566;2023-03-14T10:48:22;95606.00;;;11.80
15062;BMP180;7630;50.306;8.566;2023-03-14T10:52:26;95592.00;;;12.00
15062;BMP180;7630;50.306;8.566;2023-03-14T10:56:36;95600.00;;;11.50
15062;BMP180;7630;50.306;8.566;2023-03-14T11:00:38;95594.00;;;11.70
15062;BMP180;7630;50.306;8.566;2023-03-14T11:13:55;95588.00;;;11.70
15062;BMP180;7630;50.306;8.566;2023-03-14T11:34:54;95590.00;;;11.50
15062;BMP180;7630;50.306;8.566;2023-03-14T11:38:57;95596.00;;;11.90
15062;BMP180;7630;50.306;8.566;2023-03-14T11:47:38;95591.00;;;11.30
15062;BMP180;7630;50.306;8.566;2023-03-14T11:51:46;95672.00;;;11.40
15062;BMP180;7630;50.306;8.566;2023-03-14T11:55:47;95728.00;;;8.90
15062;BMP180;7630;50.306;8.566;2023-03-14T12:00:20;95752.00;;;8.40
15062;BMP180;7630;50.306;8.566;2023-03-14T12:04:46;95770.00;;;8.50
15062;BMP180;7630;50.306;8.566;2023-03-14T12:08:50;95790.00;;;8.20
15062;BMP180;7630;50.306;8.566;2023-03-14T12:12:51;95801.00;;;7.50
15062;BMP180;7630;50.306;8.566;2023-03-14T12:16:55;95785.00;;;7.50
15062;BMP180;7630;50.306;8.566;2023-03-14T12:21:01;95808.00;;;7.90
15062;BMP180;7630;50.306;8.566;2023-03-14T12:25:06;95803.00;;;8.10
15062;BMP180;7630;50.306;8.566;2023-03-14T12:29:17;95820.00;;;8.40
15062;BMP180;7630;50.306;8.566;2023-03-14T12:33:26;95811.00;;;7.80
15062;BMP180;7630;50.306;8.566;2023-03-14T12:37:41;95802.00;;;8.20
15062;BMP180;7630;50.306;8.566;2023-03-14T12:41:44;95807.00;;;8.00
15062;BMP180;7630;50.306;8.566;2023-03-14T12:50:13;95824.00;;;9.30
15062;BMP180;7630;50.306;8.566;2023-03-14T13:02:44;95854.00;;;7.80
15062;BMP180;7630;50.306;8.566;2023-03-14T13:06:54;95889.00;;;8.00
15062;BMP180;7630;50.306;8.566;2023-03-14T13:10:58;95898.00;;;8.10
15062;BMP180;7630;50.306;8.566;2023-03-14T13:15:00;95904.00;;;8.80
15062;BMP180;7630;50.306;8.566;2023-03-14T13:19:11;95904.00;;;8.20
15062;BMP180;7630;50.306;8.566;2023-03-14T13:23:26;95922.00;;;8.60
15062;BMP180;7630;50.306;8.566;2023-03-14T13:27:29;95934.00;;;8.30
15062;BMP180;7630;50.306;8.566;2023-03-14T13:31:31;95947.00;;;8.70
15062;BMP180;7630;50.306;8.566;2023-03-14T13:35:42;95956.00;;;8.60
15062;BMP180;7630;50.306;8.566;2023-03-14T13:39:52;95982.00;;;9.40
15062;BMP180;7630;50.306;8.566;2023-03-14T13:44:08;96027.00;;;8.90
15062;BMP180;7630;50.306;8.566;2023-03-14T13:48:11;96026.00;;;8.90
15062;BMP180;7630;50.306;8.566;2023-03-14T13:52:31;96044.00;;;9.90
15062;BMP180;7630;50.306;8.566;2023-03-14T13:56:33;96073.00;;;10.50
15062;BMP180;7630;50.306;8.566;2023-03-14T14:00:34;96074.00;;;7.60
15062;BMP180;7630;50.306;8.566;2023-03-14T14:04:36;96127.00;;;7.40
15062;BMP180;7630;50.306;8.566;2023-03-14T14:08:40;96132.00;;;7.70
15062;BMP180;7630;50.306;8.566;2023-03-14T14:12:49;96157.00;;;7.70
15062;BMP180;7630;50.306;8.566;2023-03-14T14:16:53;96171.00;;;8.10
15062;BMP180;7630;50.306;8.566;2023-03-14T14:20:55;96177.00;;;8.70
15062;BMP180;7630;50.306;8.566;2023-03-14T14:24:58;96197.00;;;8.40
15062;BMP180;7630;50.306;8.566;2023-03-14T14:29:02;96199.00;;;8.10
15062;BMP180;7630;50.306;8.566;2023-03-14T14:33:20;96219.00;;;7.80
15062;BMP180;7630;50.306;8.566;2023-03-14T14:37:31;96242.00;;;7.70
15062;BMP180;7630;50.306;8.566;2023-03-14T14:41:34;96248.00;;;7.40
15062;BMP180;7630;50.306;8.566;2023-03-14T14:45:36;96249.00;;;7.50
15062;BMP180;7630;50.306;8.566;2023-03-14T14:49:37;96254.00;;;7.60
15062;BMP180;7630;50.306;8.566;2023-03-14T14:53:41;96263.00;;;7.50
15062;BMP180;7630;50.306;8.566;2023-03-14T14:57:54;96272.00;;;7.40
15062;BMP180;7630;50.306;8.566;2023-03-14T15:02:03;96293.00;;;7.70
15062;BMP180;7630;50.306;8.566;2023-03-14T15:06:08;96294.00;;;7.70
15062;BMP180;7630;50.306;8.566;2023-03-14T15:10:11;96200.00;;;7.90
15062;BMP180;7630;50.306;8.566;2023-03-14T15:14:12;96311.00;;;7.30
15062;BMP180;7630;50.306;8.566;2023-03-14T15:18:16;96313.00;;;7.80
15062;BMP180;7630;50.306;8.566;2023-03-14T15:22:18;96330.00;;;6.60
15062;BMP180;7630;50.306;8.566;2023-03-14T15:26:25;96353.00;;;5.80
15062;BMP180;7630;50.306;8.566;2023-03-14T15:30:26;96379.00;;;5.80
15062;BMP180;7630;50.306;8.566;2023-03-14T15:34:28;96407.00;;;5.90
15062;BMP180;7630;50.306;8.566;2023-03-14T15:38:29;96418.00;;;6.30
15062;BMP180;7630;50.306;8.566;2023-03-14T15:42:30;96440.00;;;6.10
15062;BMP180;7630;50.306;8.566;2023-03-14T15:46:31;96437.00;;;5.40
15062;BMP180;7630;50.306;8.566;2023-03-14T15:50:32;96445.00;;;5.10
15062;BMP180;7630;50.306;8.566;2023-03-14T15:54:34;96457.00;;;5.80
15062;BMP180;7630;50.306;8.566;2023-03-14T15:58:36;96455.00;;;6.20
15062;BMP180;7630;50.306;8.566;2023-03-14T16:02:39;96453.00;;;5.80
15062;BMP180;7630;50.306;8.566;2023-03-14T16:06:43;96452.00;;;6.10
15062;BMP180;7630;50.306;8.566;2023-03-14T16:10:45;96467.00;;;5.20
15062;BMP180;7630;50.306;8.566;2023-03-14T16:14:47;96475.00;;;6.30
15062;BMP180;7630;50.306;8.566;2023-03-14T16:18:48;96486.00;;;6.60
15062;BMP180;7630;50.306;8.566;2023-03-14T16:22:50;96500.00;;;6.60
15062;BMP180;7630;50.306;8.566;2023-03-14T16:26:51;96506.00;;;6.60
15062;BMP180;7630;50.306;8.566;2023-03-14T16:31:13;96517.00;;;6.90
15062;BMP180;7630;50.306;8.566;2023-03-14T16:35:10;96525.00;;;7.10
15062;BMP180;7630;50.306;8.566;2023-03-14T16:39:12;96533.00;;;5.90
15062;BMP180;7630;50.306;8.566;2023-03-14T16:43:13;96544.00;;;5.00
15062;BMP180;7630;50.306;8.566;2023-03-14T16:47:16;96558.00;;;4.80
15062;BMP180;7630;50.306;8.566;2023-03-14T16:51:17;96564.00;;;4.90
15062;BMP180;7630;50.306;8.566;2023-03-14T16:55:19;96586.00;;;5.20
15062;BMP180;7630;50.306;8.566;2023-03-14T16:59:20;96583.00;;;5.10
15062;BMP180;7630;50.306;8.566;2023-03-14T17:03:21;96588.00;;;5.00
15062;BMP180;7630;50.306;8.566;2023-03-14T17:07:22;96599.00;;;5.30
15062;BMP180;7630;50.306;8.566;2023-03-14T17:11:24;96612.00;;;5.20
15062;BMP180;7630;50.306;8.566;2023-03-14T17:15:25;96553.00;;;5.50
15062;BMP180;7630;50.306;8.566;2023-03-14T17:19:26;96632.00;;;5.20
15062;BMP180;7630;50.306;8.566;2023-03-14T17:23:29;96632.00;;;5.30
15062;BMP180;7630;50.306;8.566;2023-03-14T17:27:30;96635.00;;;5.50
15062;BMP180;7630;50.306;8.566;2023-03-14T17:31:32;96656.00;;;5.80
15062;BMP180;7630;50.306;8.566;2023-03-14T17:35:33;96661.00;;;5.90
15062;BMP180;7630;50.306;8.566;2023-03-14T17:39:35;96664.00;;;6.30
15062;BMP180;7630;50.306;8.566;2023-03-14T17:43:36;96670.00;;;5.10
15062;BMP180;7630;50.306;8.566;2023-03-14T17:47:38;96680.00;;;5.70
15062;BMP180;7630;50.306;8.566;2023-03-14T17:51:39;96691.00;;;5.40
15062;BMP180;7630;50.306;8.566;2023-03-14T17:55:40;96710.00;;;5.20
15062;BMP180;7630;50.306;8.566;2023-03-14T17:59:42;96714.00;;;5.50
15062;BMP180;7630;50.306;8.566;2023-03-14T18:03:43;96741.00;;;5.40
15062;BMP180;7630;50.306;8.566;2023-03-14T18:07:45;96749.00;;;6.10
15062;BMP180;7630;50.306;8.566;2023-03-14T18:11:46;96760.00;;;5.10
15062;BMP180;7630;50.306;8.566;2023-03-14T18:15:50;96690.00;;;5.30
15062;BMP180;7630;50.306;8.566;2023-03-14T18:19:52;96777.00;;;5.20
15062;BMP180;7630;50.306;8.566;2023-03-14T18:23:55;96799.00;;;5.80
15062;BMP180;7630;50.306;8.566;2023-03-14T18:27:56;96802.00;;;5.30
15062;BMP180;7630;50.306;8.566;2023-03-14T18:31:58;96821.00;;;6.00
15062;BMP180;7630;50.306;8.566;2023-03-14T18:35:59;96825.00;;;6.30
15062;BMP180;7630;50.306;8.566;2023-03-14T18:40:00;96830.00;;;6.70
15062;BMP180;7630;50.306;8.566;2023-03-14T18:44:02;96836.00;;;6.80
15062;BMP180;7630;50.306;8.566;2023-03-14T18:48:04;96843.00;;;5.60
15062;BMP180;7630;50.306;8.566;2023-03-14T18:52:05;96849.00;;;5.90
15062;BMP180;7630;50.306;8.566;2023-03-14T18:56:07;96860.00;;;5.60
15062;BMP180;7630;50.306;8.566;2023-03-14T19:00:13;96866.00;;;5.80
15062;BMP180;7630;50.306;8.566;2023-03-14T19:04:15;96866.00;;;5.80
15062;BMP180;7630;50.306;8.566;2023-03-14T19:08:16;96871.00;;;5.20
15062;BMP180;7630;50.306;8.566;2023-03-14T19:12:17;96879.00;;;6.60
15062;BMP180;7630;50.306;8.566;2023-03-14T19:16:19;96885.00;;;5.60
15062;BMP180;7630;50.306;8.566;2023-03-14T19:20:22;96894.00;;;6.00
15062;BMP180;7630;50.306;8.566;2023-03-14T19:24:24;96884.00;;;5.50
15062;BMP180;7630;50.306;8.566;2023-03-14T19:28:25;96897.00;;;5.50
15062;BMP180;7630;50.306;8.566;2023-03-14T19:32:26;96905.00;;;5.70
15062;BMP180;7630;50.306;8.566;2023-03-14T19:36:29;96914.00;;;5.60
15062;BMP180;7630;50.306;8.566;2023-03-14T19:40:31;96913.00;;;5.00
15062;BMP180;7630;50.306;8.566;2023-03-14T19:44:32;96936.00;;;5.60
15062;BMP180;7630;50.306;8.566;2023-03-14T19:48:34;96937.00;;;6.00
15062;BMP180;7630;50.306;8.566;2023-03-14T19:52:36;96942.00;;;5.80
15062;BMP180;7630;50.306;8.566;2023-03-14T19:56:39;96951.00;;;5.60
15062;BMP180;7630;50.306;8.566;2023-03-14T20:00:41;96952.00;;;5.30
15062;BMP180;7630;50.306;8.566;2023-03-14T20:04:44;96969.00;;;5.70
15062;BMP180;7630;50.306;8.566;2023-03-14T20:08:46;96974.00;;;5.60
15062;BMP180;7630;50.306;8.566;2023-03-14T20:12:48;96980.00;;;5.70
15062;BMP180;7630;50.306;8.566;2023-03-14T20:16:50;96983.00;;;5.30
15062;BMP180;7630;50.306;8.566;2023-03-14T20:20:52;97000.00;;;5.80
15062;BMP180;7630;50.306;8.566;2023-03-14T20:24:53;97018.00;;;5.60
15062;BMP180;7630;50.306;8.566;2023-03-14T20:28:55;97023.00;;;6.10
15062;BMP180;7630;50.306;8.566;2023-03-14T20:32:56;97040.00;;;6.70
15062;BMP180;7630;50.306;8.566;2023-03-14T20:36:57;97042.00;;;6.10
15062;BMP180;7630;50.306;8.566;2023-03-14T20:40:59;97041.00;;;6.50
15062;BMP180;7630;50.306;8.566;2023-03-14T20:45:01;97057.00;;;6.00
15062;BMP180;7630;50.306;8.566;2023-03-14T20:49:03;97061.00;;;6.40
15062;BMP180;7630;50.306;8.566;2023-03-14T20:53:04;97061.00;;;7.00
15062;BMP180;7630;50.306;8.566;2023-03-14T20:57:05;97085.00;;;6.90
15062;BMP180;7630;50.306;8.566;2023-03-14T21:01:06;97090.00;;;6.50
15062;BMP180;7630;50.306;8.566;2023-03-14T21:05:08;97102.00;;;6.40
15062;BMP180;7630;50.306;8.566;2023-03-14T21:09:11;97105.00;;;6.70
15062;BMP180;7630;50.306;8.566;2023-03-14T21:13:12;97114.00;;;6.80
15062;BMP180;7630;50.306;8.566;2023-03-14T21:17:13;97128.00;;;6.70
15062;BMP180;7630;50.306;8.566;2023-03-14T21:21:14;97131.00;;;6.50
15062;BMP180;7630;50.306;8.566;2023-03-14T21:25:16;97129.00;;;6.80
15062;BMP180;7630;50.306;8.566;2023-03-14T21:29:17;97134.00;;;6.10
15062;BMP180;7630;50.306;8.566;2023-03-14T21:33:18;97135.00;;;6.80
15062;BMP180;7630;50.306;8.566;2023-03-14T21:37:20;97139.00;;;6.50
15062;BMP180;7630;50.306;8.566;2023-03-14T21:41:22;97158.00;;;6.30
15062;BMP180;7630;50.306;8.566;2023-03-14T21:45:25;97162.00;;;7.10
15062;BMP180;7630;50.306;8.566;2023-03-14T21:49:26;97166.00;;;6.70
15062;BMP180;7630;50.306;8.566;2023-03-14T21:53:27;97168.00;;;6.90
15062;BMP180;7630;50.306;8.566;2023-03-14T21:57:29;97179.00;;;6.30
15062;BMP180;7630;50.306;8.566;2023-03-14T22:01:31;97175.00;;;6.70
15062;BMP180;7630;50.306;8.566;2023-03-14T22:05:32;97172.00;;;6.80
15062;BMP180;7630;50.306;8.566;2023-03-14T22:09:34;97182.00;;;6.50
15062;BMP180;7630;50.306;8.566;2023-03-14T22:13:35;97194.00;;;6.70
15062;BMP180;7630;50.306;8.566;2023-03-14T22:17:37;97193.00;;;6.40
15062;BMP180;7630;50.306;8.566;2023-03-14T22:21:39;97202.00;;;6.60
15062;BMP180;7630;50.306;8.566;2023-03-14T22:25:45;97210.00;;;6.60
15062;BMP180;7630;50.306;8.566;2023-03-14T22:29:47;97220.00;;;6.90
15062;BMP180;7630;50.306;8.566;2023-03-14T22:33:48;97226.00;;;6.50
15062;BMP180;7630;50.306;8.566;2023-03-14T22:37:49;97226.00;;;6.60
15062;BMP180;7630;50.306;8.566;2023-03-14T22:41:50;97237.00;;;6.40
15062;BMP180;7630;50.306;8.566;2023-03-14T22:46:02;97247.00;;;6.20
15062;BMP180;7630;50.306;8.566;2023-03-14T22:50:04;97258.00;;;6.20
15062;BMP180;7630;50.306;8.566;2023-03-14T22:54:06;97264.00;;;6.20
15062;BMP180;7630;50.306;8.566;2023-03-14T22:58:07;97273.00;;;6.00
15062;BMP180;7630;50.306;8.566;2023-03-14T23:02:08;97286.00;;;6.30
15062;BMP180;7630;50.306;8.566;2023-03-14T23:06:10;97296.00;;;6.10
15062;BMP180;7630;50.306;8.566;2023-03-14T23:10:11;97294.00;;;5.60
15062;BMP180;7630;50.306;8.566;2023-03-14T23:14:12;97294.00;;;5.80
15062;BMP180;7630;50.306;8.566;2023-03-14T23:18:14;97304.00;;;5.20
15062;BMP180;7630;50.306;8.566;2023-03-14T23:22:15;97301.00;;;4.10
15062;BMP180;7630;50.306;8.566;2023-03-14T23:26:20;97305.00;;;5.20
15062;BMP180;7630;50.306;8.566;2023-03-14T23:30:24;97309.00;;;5.10
15062;BMP180;7630;50.306;8.566;2023-03-14T23:34:26;97313.00;;;4.80
15062;BMP180;7630;50.306;8.566;2023-03-14T23:38:27;97310.00;;;5.30
15062;BMP180;7630;50.306;8.566;2023-03-14T23:42:28;97307.00;;;5.50
15062;BMP180;7630;50.306;8.566;2023-03-14T23:46:29;97317.00;;;5.70
15062;BMP180;7630;50.306;8.566;2023-03-14T23:50:36;97311.00;;;5.70
15062;BMP180;7630;50.306;8.566;2023-03-14T23:54:37;97316.00;;;5.20
15062;BMP180;7630;50.306;8.566;2023-03-14T23:58:38;97327.00;;;5.40
